Terminal Aerodrome Forecast
Issued by NWS Cleveland, OH

Home | Current Version | Previous Version | Graphics & Text | Print | Product List | Glossary On
Versions: 1 2 3 4 5 6 7 8 9 10 11 12 13 14 15 16 17 18 19 20 21 22 23 24 25 26 27 28 29 30 31 32 33 34 35 36 37 38 39 40 41
000
FTUS41 KCLE 211400 AAA
TAFCLE
TAF AMD
KCLE 211445Z 2115/2218 35012G20KT 5SM -DZ BR OVC015
      TEMPO 2115/2118 3SM -RA BR OVC008
     FM211800 36014G22KT P6SM VCSH OVC025
     FM220300 36010KT P6SM VCSH OVC018=

USA.gov is the U.S. government's official web portal to all federal, state and local government web resources and services.